Time;durP1;ratioP1;P1;durP2;ratioP2;P2;SDS_P1;SDS_P2;PMS_P1;PMS_P2;Temp;Humidity;BMP_temperature;BMP_pressure;BME280_temperature;BME280_humidity;BME280_pressure;Samples;Min_cycle;Max_cycle;Signal;HPM_P1;HPM_P2
2024/02/06 00:02:59;;;;;;;73.55;52.55;;;;;;;;;;9946434;28;20476;-73
2024/02/06 00:07:51;;;;;;;77.38;54.30;;;;;;;;;;9945860;28;20117;-74
2024/02/06 00:12:43;;;;;;;71.80;51.63;;;;;;;;;;9945828;28;20057;-74
2024/02/06 00:17:35;;;;;;;74.07;55.75;;;;;;;;;;9937811;28;20433;-73
2024/02/06 00:22:27;;;;;;;74.43;55.55;;;;;;;;;;9945485;28;20047;-74
2024/02/06 00:27:19;;;;;;;82.57;60.45;;;;;;;;;;9941041;28;20486;-74
2024/02/06 00:32:11;;;;;;;76.38;59.38;;;;;;;;;;9944825;28;20043;-74
2024/02/06 00:37:03;;;;;;;79.05;58.17;;;;;;;;;;9943928;28;20085;-74
2024/02/06 00:41:55;;;;;;;82.78;57.35;;;;;;;;;;9944620;28;20051;-74
2024/02/06 00:46:47;;;;;;;85.57;59.40;;;;;;;;;;9918946;28;20175;-73
2024/02/06 00:51:39;;;;;;;84.43;61.70;;;;;;;;;;9914643;28;20043;-74
2024/02/06 00:56:30;;;;;;;83.85;62.35;;;;;;;;;;9916201;28;20497;-74
2024/02/06 01:01:23;;;;;;;75.30;57.63;;;;;;;;;;9921850;28;20134;-73
2024/02/06 01:06:15;;;;;;;72.63;54.88;;;;;;;;;;9917065;28;20035;-73
2024/02/06 01:11:07;;;;;;;77.60;59.13;;;;;;;;;;9915369;28;20043;-73
2024/02/06 01:16:00;;;;;;;77.10;56.42;;;;;;;;;;9914181;28;20062;-74
2024/02/06 01:20:52;;;;;;;75.60;58.28;;;;;;;;;;9914372;28;20393;-73
2024/02/06 01:25:43;;;;;;;75.85;52.90;;;;;;;;;;9914410;28;20095;-74
2024/02/06 01:30:35;;;;;;;76.93;56.38;;;;;;;;;;9924201;28;20086;-74
2024/02/06 01:35:27;;;;;;;75.88;55.88;;;;;;;;;;9911927;28;20086;-74
2024/02/06 01:40:19;;;;;;;84.32;57.80;;;;;;;;;;9916250;28;20051;-74
2024/02/06 01:45:11;;;;;;;88.70;62.33;;;;;;;;;;9909419;28;20084;-74
2024/02/06 01:50:03;;;;;;;93.00;67.63;;;;;;;;;;9913314;28;20039;-74
2024/02/06 01:54:55;;;;;;;96.03;67.15;;;;;;;;;;9897603;28;20039;-73
2024/02/06 01:59:47;;;;;;;90.20;66.90;;;;;;;;;;9912840;28;20126;-74
2024/02/06 02:04:39;;;;;;;89.32;64.03;;;;;;;;;;9914492;28;20073;-74
2024/02/06 02:09:31;;;;;;;92.82;65.30;;;;;;;;;;9912827;28;20159;-74
2024/02/06 02:14:23;;;;;;;81.72;59.25;;;;;;;;;;9911119;28;20102;-73
2024/02/06 02:19:15;;;;;;;87.78;65.40;;;;;;;;;;9912458;28;20537;-73
2024/02/06 02:24:07;;;;;;;92.03;65.40;;;;;;;;;;9913245;28;20046;-75
2024/02/06 02:28:59;;;;;;;88.97;61.85;;;;;;;;;;9911466;28;20062;-73
2024/02/06 02:33:51;;;;;;;85.32;56.38;;;;;;;;;;9912213;28;20571;-73
2024/02/06 02:38:43;;;;;;;73.50;51.83;;;;;;;;;;9911908;28;20066;-73
2024/02/06 02:43:35;;;;;;;71.60;51.95;;;;;;;;;;9911820;28;20351;-73
2024/02/06 02:48:27;;;;;;;68.43;50.55;;;;;;;;;;9911089;28;20055;-73
2024/02/06 02:53:19;;;;;;;90.85;64.78;;;;;;;;;;9911981;28;20555;-73
2024/02/06 02:58:12;;;;;;;83.57;59.05;;;;;;;;;;9911397;28;20130;-75
2024/02/06 03:03:06;;;;;;;86.75;60.65;;;;;;;;;;9911125;28;20085;-73
2024/02/06 03:07:58;;;;;;;86.00;61.65;;;;;;;;;;9910854;28;20043;-73
2024/02/06 03:12:50;;;;;;;84.28;60.70;;;;;;;;;;9908910;28;20114;-73
2024/02/06 03:17:41;;;;;;;89.97;62.35;;;;;;;;;;9911507;28;20046;-73
2024/02/06 03:22:33;;;;;;;99.00;63.40;;;;;;;;;;9911350;28;20043;-73
2024/02/06 03:27:26;;;;;;;73.20;54.97;;;;;;;;;;9909706;28;20039;-74
2024/02/06 03:32:18;;;;;;;75.57;52.13;;;;;;;;;;9910973;28;20077;-74
2024/02/06 03:37:10;;;;;;;74.65;52.95;;;;;;;;;;9919125;28;20629;-74
2024/02/06 03:42:01;;;;;;;76.32;54.55;;;;;;;;;;9909526;28;20043;-74
2024/02/06 03:46:53;;;;;;;65.10;53.33;;;;;;;;;;9909514;28;20053;-74
2024/02/06 03:51:45;;;;;;;80.18;55.55;;;;;;;;;;9910270;28;20049;-74
2024/02/06 03:56:37;;;;;;;82.30;55.70;;;;;;;;;;9909388;28;20385;-74
2024/02/06 04:01:28;;;;;;;70.18;51.65;;;;;;;;;;9909338;28;20043;-75
2024/02/06 04:06:21;;;;;;;77.78;54.22;;;;;;;;;;9908903;28;20146;-73
2024/02/06 04:11:13;;;;;;;79.70;57.80;;;;;;;;;;9908916;28;20102;-73
2024/02/06 04:16:05;;;;;;;79.30;55.25;;;;;;;;;;9909166;28;20074;-73
2024/02/06 04:20:57;;;;;;;71.57;54.55;;;;;;;;;;9909444;28;20059;-72
2024/02/06 04:25:49;;;;;;;86.50;64.03;;;;;;;;;;9913370;28;20086;-74
2024/02/06 04:30:41;;;;;;;81.35;57.97;;;;;;;;;;9917976;28;20045;-73
2024/02/06 04:35:33;;;;;;;79.80;59.72;;;;;;;;;;9916856;28;20047;-73
2024/02/06 04:40:29;;;;;;;85.78;60.63;;;;;;;;;;9919256;28;20141;-73
2024/02/06 04:45:21;;;;;;;76.70;55.70;;;;;;;;;;9915798;28;20047;-73
2024/02/06 04:50:13;;;;;;;78.18;58.53;;;;;;;;;;9918242;28;20171;-74
2024/02/06 04:55:06;;;;;;;97.07;61.10;;;;;;;;;;9916513;28;20039;-74
2024/02/06 04:59:58;;;;;;;86.30;61.97;;;;;;;;;;9915346;28;20071;-73
2024/02/06 05:04:51;;;;;;;84.53;61.58;;;;;;;;;;9914579;28;20081;-73
2024/02/06 05:09:43;;;;;;;94.82;62.75;;;;;;;;;;9915435;28;20043;-73
2024/02/06 05:14:36;;;;;;;76.28;56.97;;;;;;;;;;9914926;28;20043;-73
2024/02/06 05:19:28;;;;;;;101.40;70.53;;;;;;;;;;9913915;28;20050;-73
2024/02/06 05:24:20;;;;;;;85.75;62.58;;;;;;;;;;9914179;28;20126;-74
2024/02/06 05:29:13;;;;;;;81.97;56.67;;;;;;;;;;9914502;28;20401;-73
2024/02/06 05:34:05;;;;;;;85.13;57.17;;;;;;;;;;9913134;28;20407;-73
2024/02/06 05:38:57;;;;;;;78.00;53.53;;;;;;;;;;9914344;28;20044;-73
2024/02/06 05:43:48;;;;;;;73.75;54.65;;;;;;;;;;9916107;28;20051;-73
2024/02/06 05:48:40;;;;;;;75.18;53.53;;;;;;;;;;9921726;28;20059;-73
2024/02/06 05:53:33;;;;;;;83.68;58.80;;;;;;;;;;9913936;28;20039;-74
2024/02/06 05:58:25;;;;;;;71.70;53.60;;;;;;;;;;9913867;28;20086;-74
2024/02/06 06:03:17;;;;;;;74.45;53.70;;;;;;;;;;9914995;28;20050;-74
2024/02/06 06:08:09;;;;;;;72.68;50.85;;;;;;;;;;9932402;28;20074;-74
2024/02/06 06:13:01;;;;;;;69.03;51.42;;;;;;;;;;9950324;28;20051;-74
2024/02/06 06:17:53;;;;;;;69.55;49.78;;;;;;;;;;9948471;28;20210;-73
2024/02/06 06:22:45;;;;;;;65.93;47.10;;;;;;;;;;9944858;28;20118;-72
2024/02/06 06:27:41;;;;;;;68.22;49.75;;;;;;;;;;9944447;28;20042;-75
2024/02/06 06:32:34;;;;;;;63.97;47.88;;;;;;;;;;9948450;28;20082;-74
2024/02/06 06:37:26;;;;;;;62.90;41.42;;;;;;;;;;9948297;28;20046;-74
2024/02/06 06:42:18;;;;;;;57.72;40.92;;;;;;;;;;9947527;28;20050;-75
2024/02/06 06:47:11;;;;;;;53.08;40.47;;;;;;;;;;9948809;28;20043;-74
2024/02/06 06:52:05;;;;;;;55.40;42.97;;;;;;;;;;9947599;28;20061;-74
2024/02/06 06:56:57;;;;;;;74.57;56.30;;;;;;;;;;9948971;28;20054;-74
2024/02/06 07:01:51;;;;;;;52.78;43.70;;;;;;;;;;9947422;28;20442;-73
2024/02/06 07:06:43;;;;;;;47.13;36.58;;;;;;;;;;9947743;28;20062;-72
2024/02/06 07:11:35;;;;;;;42.92;35.10;;;;;;;;;;9948057;28;20043;-73
2024/02/06 07:16:27;;;;;;;40.58;31.02;;;;;;;;;;9946800;28;20386;-73
2024/02/06 07:21:19;;;;;;;41.22;28.38;;;;;;;;;;9944009;28;20050;-73
2024/02/06 07:26:11;;;;;;;35.22;27.10;;;;;;;;;;9947025;28;20046;-73
2024/02/06 07:31:03;;;;;;;43.90;30.42;;;;;;;;;;9946908;28;20039;-73
2024/02/06 07:35:55;;;;;;;46.83;34.20;;;;;;;;;;9946900;28;20126;-72
2024/02/06 07:40:47;;;;;;;36.78;27.15;;;;;;;;;;9946670;28;20105;-72
2024/02/06 07:45:39;;;;;;;37.15;24.75;;;;;;;;;;9946010;28;20046;-73
2024/02/06 07:50:31;;;;;;;37.60;27.17;;;;;;;;;;9945925;28;20049;-72
2024/02/06 07:55:23;;;;;;;52.55;34.78;;;;;;;;;;9936531;28;20054;-73
2024/02/06 08:00:16;;;;;;;42.55;30.52;;;;;;;;;;9944783;28;20047;-73
2024/02/06 08:05:08;;;;;;;43.33;32.75;;;;;;;;;;9945895;28;20143;-72
2024/02/06 08:10:00;;;;;;;46.17;34.97;;;;;;;;;;9938684;28;20078;-72
2024/02/06 08:14:52;;;;;;;47.40;36.80;;;;;;;;;;9941123;28;20054;-71
2024/02/06 08:19:44;;;;;;;75.30;54.10;;;;;;;;;;9936751;28;20062;-72
2024/02/06 08:24:36;;;;;;;67.05;48.42;;;;;;;;;;9916388;28;20153;-73
2024/02/06 08:29:28;;;;;;;71.63;51.58;;;;;;;;;;9928618;28;20092;-73
2024/02/06 08:34:21;;;;;;;81.30;57.92;;;;;;;;;;9917274;28;20043;-72
2024/02/06 08:39:15;;;;;;;86.70;61.70;;;;;;;;;;9917589;28;20039;-73
2024/02/06 08:44:08;;;;;;;90.50;64.95;;;;;;;;;;9910037;28;20051;-73
2024/02/06 08:49:00;;;;;;;81.75;61.47;;;;;;;;;;9909684;28;20055;-73
2024/02/06 08:53:52;;;;;;;95.25;63.40;;;;;;;;;;9909396;28;20059;-73
2024/02/06 08:58:45;;;;;;;89.75;61.92;;;;;;;;;;9909067;28;20087;-74
2024/02/06 09:03:38;;;;;;;78.30;58.15;;;;;;;;;;9914910;28;20055;-73
2024/02/06 09:08:30;;;;;;;68.50;52.80;;;;;;;;;;9909013;28;20050;-73
2024/02/06 09:13:23;;;;;;;78.95;57.67;;;;;;;;;;9914255;28;20493;-73
2024/02/06 09:18:16;;;;;;;85.28;59.28;;;;;;;;;;9915968;28;20138;-73
2024/02/06 09:23:08;;;;;;;77.82;57.58;;;;;;;;;;9914783;28;20367;-73
2024/02/06 09:28:02;;;;;;;80.60;55.80;;;;;;;;;;9919283;28;20475;-73
2024/02/06 09:32:54;;;;;;;79.57;57.00;;;;;;;;;;9921659;28;20059;-74
2024/02/06 09:37:46;;;;;;;79.10;56.63;;;;;;;;;;9920401;28;20047;-73
2024/02/06 09:42:38;;;;;;;79.47;50.60;;;;;;;;;;9912959;28;20095;-74
2024/02/06 09:47:30;;;;;;;73.45;52.47;;;;;;;;;;9920492;28;20492;-76
2024/02/06 09:52:22;;;;;;;69.35;51.13;;;;;;;;;;9926866;28;20054;-76
2024/02/06 09:57:20;;;;;;;67.68;48.13;;;;;;;;;;9921083;28;20374;-76
2024/02/06 10:02:13;;;;;;;65.80;49.22;;;;;;;;;;9924604;28;20138;-76
2024/02/06 10:07:05;;;;;;;57.40;44.20;;;;;;;;;;9911527;28;20138;-75
2024/02/06 10:11:57;;;;;;;62.60;42.38;;;;;;;;;;9941266;28;20038;-75
2024/02/06 10:16:49;;;;;;;53.42;36.58;;;;;;;;;;9898322;28;20051;-75
2024/02/06 10:21:41;;;;;;;56.92;40.60;;;;;;;;;;9925963;28;20145;-76
2024/02/06 10:26:34;;;;;;;47.05;36.97;;;;;;;;;;9913973;28;20043;-76
2024/02/06 10:31:26;;;;;;;48.45;36.95;;;;;;;;;;9913180;28;20114;-76
2024/02/06 10:36:18;;;;;;;41.47;33.13;;;;;;;;;;9921756;28;20407;-76
2024/02/06 10:41:09;;;;;;;40.47;27.17;;;;;;;;;;9902633;28;20047;-76
2024/02/06 10:46:21;;;;;;;44.50;27.58;;;;;;;;;;9898678;28;20054;-76
2024/02/06 10:51:23;;;;;;;35.77;27.03;;;;;;;;;;9911968;28;20366;-76
2024/02/06 10:56:21;;;;;;;40.95;25.92;;;;;;;;;;9912078;28;20102;-76
2024/02/06 11:01:14;;;;;;;38.00;27.08;;;;;;;;;;9897370;28;20058;-75
2024/02/06 11:06:15;;;;;;;37.13;27.27;;;;;;;;;;9912970;28;20110;-76
2024/02/06 11:11:08;;;;;;;37.65;24.92;;;;;;;;;;9898231;28;20528;-76
2024/02/06 11:16:02;;;;;;;39.58;27.83;;;;;;;;;;9901364;28;20051;-76
2024/02/06 11:20:57;;;;;;;43.15;28.55;;;;;;;;;;9912492;28;20047;-77
2024/02/06 11:25:49;;;;;;;42.17;26.58;;;;;;;;;;9910724;28;20035;-75
2024/02/06 11:30:42;;;;;;;42.95;25.00;;;;;;;;;;9910117;28;20058;-76
2024/02/06 11:35:35;;;;;;;35.00;22.80;;;;;;;;;;9901447;28;20047;-75
2024/02/06 11:40:28;;;;;;;32.25;21.92;;;;;;;;;;9912615;28;20043;-76
2024/02/06 11:45:20;;;;;;;24.02;18.08;;;;;;;;;;9912936;28;20109;-75
2024/02/06 11:50:12;;;;;;;33.25;20.90;;;;;;;;;;9909810;28;20106;-75
2024/02/06 11:55:06;;;;;;;40.00;23.42;;;;;;;;;;9910770;28;20379;-75
2024/02/06 11:59:58;;;;;;;30.17;23.73;;;;;;;;;;9910520;28;20074;-77
2024/02/06 12:04:50;;;;;;;27.88;20.60;;;;;;;;;;9925207;28;20049;-76
2024/02/06 12:09:43;;;;;;;24.88;20.20;;;;;;;;;;9911167;28;20478;-76
2024/02/06 12:14:35;;;;;;;25.73;21.25;;;;;;;;;;9910354;28;20084;-76
2024/02/06 12:19:27;;;;;;;32.63;21.15;;;;;;;;;;9898993;28;20044;-76
2024/02/06 12:24:19;;;;;;;27.75;20.17;;;;;;;;;;9916201;28;20114;-76
2024/02/06 12:29:11;;;;;;;38.78;20.77;;;;;;;;;;9909369;28;20055;-75
2024/02/06 12:34:07;;;;;;;33.65;21.60;;;;;;;;;;9913804;28;20377;-76
2024/02/06 12:39:02;;;;;;;33.42;23.08;;;;;;;;;;9922305;28;20138;-76
2024/02/06 12:43:53;;;;;;;29.50;23.10;;;;;;;;;;9936352;28;20058;-76
2024/02/06 12:48:48;;;;;;;35.83;25.45;;;;;;;;;;9913396;28;20497;-76
2024/02/06 12:53:40;;;;;;;34.65;25.40;;;;;;;;;;9932010;28;20050;-75
2024/02/06 12:58:34;;;;;;;33.45;25.55;;;;;;;;;;9896326;28;20090;-76
2024/02/06 13:03:28;;;;;;;33.80;26.70;;;;;;;;;;9908877;28;20047;-76
2024/02/06 13:08:20;;;;;;;39.97;25.00;;;;;;;;;;9924670;28;20047;-73
2024/02/06 13:13:16;;;;;;;36.25;25.20;;;;;;;;;;9911439;28;20046;-76
2024/02/06 13:18:08;;;;;;;33.30;23.38;;;;;;;;;;9910489;28;20059;-76
2024/02/06 13:23:13;;;;;;;37.25;24.67;;;;;;;;;;9911740;28;20102;-76
2024/02/06 13:28:05;;;;;;;36.22;23.50;;;;;;;;;;9911896;28;20543;-76
2024/02/06 13:32:57;;;;;;;32.03;22.42;;;;;;;;;;9912223;28;20051;-77
2024/02/06 13:37:49;;;;;;;33.55;23.35;;;;;;;;;;9911386;28;20131;-75
2024/02/06 13:42:41;;;;;;;28.92;22.40;;;;;;;;;;9900000;28;20076;-75
2024/02/06 13:47:33;;;;;;;31.48;22.75;;;;;;;;;;9914778;28;20047;-79
2024/02/06 13:52:25;;;;;;;31.77;23.38;;;;;;;;;;9910893;28;20055;-75
2024/02/06 13:57:18;;;;;;;32.92;22.80;;;;;;;;;;9909410;28;20050;-76
2024/02/06 14:02:10;;;;;;;31.15;22.80;;;;;;;;;;9911063;28;20442;-76
2024/02/06 14:07:03;;;;;;;29.55;23.40;;;;;;;;;;9919417;28;20040;-76
2024/02/06 14:11:58;;;;;;;30.88;22.95;;;;;;;;;;9910041;28;20058;-75
2024/02/06 14:16:50;;;;;;;36.30;26.83;;;;;;;;;;9909852;28;20066;-76
2024/02/06 14:21:44;;;;;;;35.88;24.63;;;;;;;;;;9908892;28;20058;-74
2024/02/06 14:26:36;;;;;;;41.17;29.63;;;;;;;;;;9932864;28;20046;-77
2024/02/06 14:31:28;;;;;;;43.63;32.17;;;;;;;;;;9936892;28;20074;-77
2024/02/06 14:36:20;;;;;;;38.58;25.95;;;;;;;;;;9920059;28;20057;-77
2024/02/06 14:41:12;;;;;;;40.20;25.15;;;;;;;;;;9917137;28;20430;-77
2024/02/06 14:46:04;;;;;;;39.88;29.73;;;;;;;;;;9919218;28;20070;-79
2024/02/06 14:50:58;;;;;;;38.30;28.27;;;;;;;;;;9921631;28;20051;-77
2024/02/06 14:55:50;;;;;;;39.70;28.52;;;;;;;;;;9934412;28;20039;-76
2024/02/06 15:00:42;;;;;;;38.10;27.25;;;;;;;;;;9906871;28;20430;-78
2024/02/06 15:05:34;;;;;;;35.05;25.30;;;;;;;;;;9904643;28;20054;-77
2024/02/06 15:10:26;;;;;;;39.50;28.33;;;;;;;;;;9906097;28;20363;-77
2024/02/06 15:15:18;;;;;;;39.25;28.33;;;;;;;;;;9906936;28;20102;-78
2024/02/06 15:20:11;;;;;;;39.67;28.92;;;;;;;;;;9922299;28;20062;-88
2024/02/06 15:25:07;;;;;;;40.53;26.90;;;;;;;;;;9938916;28;20556;-87
2024/02/06 15:29:59;;;;;;;36.03;28.67;;;;;;;;;;9942756;28;20050;-88
2024/02/06 15:34:51;;;;;;;41.30;27.80;;;;;;;;;;9940269;28;20462;-87
2024/02/06 15:39:52;;;;;;;44.05;28.20;;;;;;;;;;9935998;28;20048;-89
2024/02/06 15:44:45;;;;;;;41.35;26.70;;;;;;;;;;9937858;28;20046;-87
2024/02/06 15:49:37;;;;;;;40.58;27.60;;;;;;;;;;9941195;28;20556;-87
2024/02/06 15:54:29;;;;;;;43.08;29.67;;;;;;;;;;9941757;28;20051;-88
2024/02/06 15:59:21;;;;;;;40.65;26.90;;;;;;;;;;9940001;28;20055;-87
2024/02/06 16:04:13;;;;;;;44.50;28.95;;;;;;;;;;9940203;28;20039;-87
2024/02/06 16:09:05;;;;;;;46.17;28.55;;;;;;;;;;9939670;28;20090;-84
2024/02/06 16:13:57;;;;;;;50.25;31.27;;;;;;;;;;9941226;28;20046;-87
2024/02/06 16:18:49;;;;;;;44.15;30.42;;;;;;;;;;9941161;28;20430;-86
2024/02/06 16:23:43;;;;;;;38.75;28.92;;;;;;;;;;9948062;28;20058;-87
2024/02/06 16:28:35;;;;;;;41.47;28.88;;;;;;;;;;9948408;28;20466;-87
2024/02/06 16:33:27;;;;;;;47.38;33.00;;;;;;;;;;9926692;28;20047;-87
2024/02/06 16:38:19;;;;;;;54.85;42.80;;;;;;;;;;9912542;28;20106;-88
2024/02/06 16:43:10;;;;;;;53.45;37.25;;;;;;;;;;9918784;28;20095;-86
2024/02/06 16:48:03;;;;;;;54.65;33.50;;;;;;;;;;9913853;28;20500;-88
2024/02/06 16:52:55;;;;;;;57.78;38.70;;;;;;;;;;9912996;28;20106;-87
2024/02/06 16:57:47;;;;;;;48.15;35.92;;;;;;;;;;9920248;28;20407;-88
2024/02/06 17:02:39;;;;;;;56.28;43.08;;;;;;;;;;9910452;28;20118;-88
2024/02/06 17:07:31;;;;;;;50.33;37.03;;;;;;;;;;9911139;28;20378;-87
2024/02/06 17:12:23;;;;;;;46.28;35.20;;;;;;;;;;9911206;28;20773;-87
2024/02/06 17:17:15;;;;;;;44.22;30.25;;;;;;;;;;9909816;28;20051;-87
2024/02/06 17:22:08;;;;;;;39.08;30.65;;;;;;;;;;9901961;28;20047;-87
2024/02/06 17:27:00;;;;;;;40.80;30.70;;;;;;;;;;9910360;28;20395;-88
2024/02/06 17:31:52;;;;;;;44.58;29.83;;;;;;;;;;9908792;28;20051;-86
2024/02/06 17:36:44;;;;;;;49.97;34.08;;;;;;;;;;9910536;28;20186;-87
2024/02/06 17:41:36;;;;;;;49.17;34.20;;;;;;;;;;9908008;28;20062;-88
2024/02/06 17:46:27;;;;;;;48.85;32.75;;;;;;;;;;9911282;28;20043;-88
2024/02/06 17:51:20;;;;;;;52.05;33.53;;;;;;;;;;9908766;28;20474;-87
2024/02/06 17:56:11;;;;;;;51.17;31.60;;;;;;;;;;9921897;28;20110;-87
2024/02/06 18:01:05;;;;;;;56.00;33.38;;;;;;;;;;9915337;28;20055;-86
2024/02/06 18:05:57;;;;;;;47.70;33.28;;;;;;;;;;9909380;28;20457;-87
2024/02/06 18:10:49;;;;;;;54.95;35.25;;;;;;;;;;9911452;28;20432;-87
2024/02/06 18:15:41;;;;;;;61.80;41.70;;;;;;;;;;9913895;28;20055;-87
2024/02/06 18:20:33;;;;;;;55.22;39.38;;;;;;;;;;9917689;28;20833;-87
2024/02/06 18:25:25;;;;;;;61.40;39.70;;;;;;;;;;9917354;28;20051;-87
2024/02/06 18:30:19;;;;;;;78.82;53.58;;;;;;;;;;9911553;28;20051;-87
2024/02/06 18:35:11;;;;;;;66.68;43.67;;;;;;;;;;9907550;28;20119;-88
2024/02/06 18:40:04;;;;;;;62.95;45.00;;;;;;;;;;9908204;28;20063;-87
2024/02/06 18:44:55;;;;;;;67.82;44.60;;;;;;;;;;9908241;28;20046;-88
2024/02/06 18:49:47;;;;;;;66.47;45.80;;;;;;;;;;9906816;28;20047;-87
2024/02/06 18:54:39;;;;;;;81.05;48.28;;;;;;;;;;9927629;28;20385;-86
2024/02/06 18:59:31;;;;;;;59.20;46.00;;;;;;;;;;9914353;28;20148;-88
2024/02/06 19:04:23;;;;;;;70.88;49.72;;;;;;;;;;9906199;28;20103;-88
2024/02/06 19:09:15;;;;;;;68.75;49.03;;;;;;;;;;9906861;28;20137;-87
2024/02/06 19:14:08;;;;;;;63.75;47.35;;;;;;;;;;9907091;28;20043;-88
2024/02/06 19:19:00;;;;;;;66.55;45.20;;;;;;;;;;9908204;28;20145;-88
2024/02/06 19:23:52;;;;;;;60.53;45.85;;;;;;;;;;9907531;28;20043;-87
2024/02/06 19:28:48;;;;;;;61.33;44.88;;;;;;;;;;9906155;28;20070;-87
2024/02/06 19:33:43;;;;;;;67.38;44.60;;;;;;;;;;9904971;28;20149;-87
2024/02/06 19:38:36;;;;;;;59.15;43.10;;;;;;;;;;9923197;28;20043;-87
2024/02/06 19:43:28;;;;;;;58.88;41.80;;;;;;;;;;9921634;28;20095;-87
2024/02/06 19:48:24;;;;;;;68.82;41.97;;;;;;;;;;9910657;28;20549;-87
2024/02/06 19:53:16;;;;;;;53.65;40.13;;;;;;;;;;9906601;28;20378;-86
2024/02/06 19:58:08;;;;;;;61.75;41.45;;;;;;;;;;9907840;28;20248;-86
2024/02/06 20:03:00;;;;;;;55.13;40.70;;;;;;;;;;9906171;28;20070;-86
2024/02/06 20:07:52;;;;;;;57.67;45.35;;;;;;;;;;9904080;28;20477;-86
2024/02/06 20:12:44;;;;;;;64.70;41.92;;;;;;;;;;9916392;28;20039;-86
2024/02/06 20:17:36;;;;;;;58.00;41.38;;;;;;;;;;9919372;28;20054;-88
2024/02/06 20:22:30;;;;;;;57.30;41.70;;;;;;;;;;9900339;28;20042;-88
2024/02/06 20:27:22;;;;;;;55.88;40.92;;;;;;;;;;9915647;28;20469;-89
2024/02/06 20:32:16;;;;;;;52.67;40.95;;;;;;;;;;9924071;28;20057;-89
2024/02/06 20:37:08;;;;;;;55.88;39.42;;;;;;;;;;9901404;28;20720;-89
2024/02/06 20:41:59;;;;;;;54.17;40.88;;;;;;;;;;9927991;28;20059;-89
2024/02/06 20:46:52;;;;;;;50.63;38.03;;;;;;;;;;9927381;28;20043;-89
2024/02/06 20:51:44;;;;;;;50.10;35.72;;;;;;;;;;9939965;28;20065;-83
2024/02/06 20:56:36;;;;;;;56.03;37.95;;;;;;;;;;9924042;28;20126;-84
2024/02/06 21:01:28;;;;;;;46.58;35.45;;;;;;;;;;9939875;28;20050;-84
2024/02/06 21:06:20;;;;;;;47.17;33.30;;;;;;;;;;9941280;28;20829;-84
2024/02/06 21:11:12;;;;;;;56.38;35.00;;;;;;;;;;9945339;28;20047;-84
2024/02/06 21:16:07;;;;;;;47.08;31.83;;;;;;;;;;9934021;28;20081;-84
2024/02/06 21:20:59;;;;;;;38.85;28.42;;;;;;;;;;9923694;28;20442;-84
2024/02/06 21:25:51;;;;;;;39.65;28.88;;;;;;;;;;9934603;28;20509;-84
2024/02/06 21:30:43;;;;;;;39.55;28.33;;;;;;;;;;9924113;28;20058;-84
2024/02/06 21:35:35;;;;;;;46.42;29.40;;;;;;;;;;9922097;28;20063;-85
2024/02/06 21:40:27;;;;;;;42.75;28.25;;;;;;;;;;9944749;28;20154;-84
2024/02/06 21:45:19;;;;;;;35.05;25.20;;;;;;;;;;9940174;28;20517;-84
2024/02/06 21:50:11;;;;;;;40.20;27.13;;;;;;;;;;9944385;28;20050;-84
2024/02/06 21:55:04;;;;;;;33.03;25.25;;;;;;;;;;9932131;28;20039;-83
2024/02/06 21:59:59;;;;;;;33.85;23.58;;;;;;;;;;9942927;28;20418;-83
2024/02/06 22:04:51;;;;;;;37.97;22.83;;;;;;;;;;9937578;28;20055;-84
2024/02/06 22:09:43;;;;;;;31.20;20.20;;;;;;;;;;9918765;28;20066;-85
2024/02/06 22:14:36;;;;;;;29.15;19.42;;;;;;;;;;9949350;28;20130;-85
2024/02/06 22:19:30;;;;;;;21.25;16.52;;;;;;;;;;9941980;28;20055;-85
2024/02/06 22:24:22;;;;;;;25.13;18.00;;;;;;;;;;9936300;28;20371;-85
2024/02/06 22:29:14;;;;;;;28.60;17.85;;;;;;;;;;9937045;28;20046;-85
2024/02/06 22:34:06;;;;;;;27.20;18.85;;;;;;;;;;9935991;28;20066;-84
2024/02/06 22:38:58;;;;;;;25.90;18.13;;;;;;;;;;9913808;28;20047;-85
2024/02/06 22:43:50;;;;;;;23.33;18.77;;;;;;;;;;9918565;28;20055;-85
2024/02/06 22:48:42;;;;;;;24.73;18.55;;;;;;;;;;9929314;28;20047;-85
2024/02/06 22:53:34;;;;;;;22.10;16.70;;;;;;;;;;9920269;28;20074;-86
2024/02/06 22:58:26;;;;;;;26.15;18.38;;;;;;;;;;9921990;28;20046;-85
2024/02/06 23:03:19;;;;;;;22.75;16.08;;;;;;;;;;9930869;28;20434;-85
2024/02/06 23:08:12;;;;;;;21.27;17.15;;;;;;;;;;9933858;28;20429;-84
2024/02/06 23:13:04;;;;;;;20.05;13.75;;;;;;;;;;9939160;28;20070;-84
2024/02/06 23:17:56;;;;;;;33.53;22.00;;;;;;;;;;9938630;28;20067;-85
2024/02/06 23:22:48;;;;;;;34.40;21.73;;;;;;;;;;9941191;28;20047;-85
2024/02/06 23:27:40;;;;;;;23.17;16.13;;;;;;;;;;9933409;28;20119;-84
2024/02/06 23:32:32;;;;;;;29.25;17.15;;;;;;;;;;9938252;28;20121;-84
2024/02/06 23:37:24;;;;;;;22.45;18.67;;;;;;;;;;9921752;28;20144;-84
2024/02/06 23:42:17;;;;;;;24.70;18.38;;;;;;;;;;9900708;28;20051;-85
2024/02/06 23:47:08;;;;;;;23.48;17.40;;;;;;;;;;9901837;28;20129;-84
2024/02/06 23:52:00;;;;;;;25.95;17.60;;;;;;;;;;9901976;28;20047;-84
2024/02/06 23:56:53;;;;;;;20.75;15.88;;;;;;;;;;9904643;28;20526;-84
